sensor_id;sensor_type;location;lat;lon;timestamp;pressure;altitude;pressure_sealevel;temperature;humidity
13027;BME280;6580;42.680;23.324;2023-10-13T00:02:22;95771.25;;;12.97;100.00
13027;BME280;6580;42.680;23.324;2023-10-13T00:05:09;95770.28;;;13.06;100.00
13027;BME280;6580;42.680;23.324;2023-10-13T00:07:57;95765.91;;;13.05;100.00
13027;BME280;6580;42.680;23.324;2023-10-13T00:10:45;95768.88;;;12.94;100.00
13027;BME280;6580;42.680;23.324;2023-10-13T00:13:38;95768.03;;;12.94;100.00
13027;BME280;6580;42.680;23.324;2023-10-13T00:16:34;95764.53;;;12.93;100.00
13027;BME280;6580;42.680;23.324;2023-10-13T00:19:23;95757.50;;;12.92;100.00
13027;BME280;6580;42.680;23.324;2023-10-13T00:22:09;95757.97;;;12.88;100.00
13027;BME280;6580;42.680;23.324;2023-10-13T00:24:54;95746.91;;;12.83;100.00
13027;BME280;6580;42.680;23.324;2023-10-13T00:27:43;95763.03;;;12.91;100.00
13027;BME280;6580;42.680;23.324;2023-10-13T00:30:36;95758.31;;;12.93;100.00
13027;BME280;6580;42.680;23.324;2023-10-13T00:33:25;95761.00;;;12.93;100.00
13027;BME280;6580;42.680;23.324;2023-10-13T00:36:12;95764.03;;;12.72;100.00
13027;BME280;6580;42.680;23.324;2023-10-13T00:39:03;95776.19;;;12.67;100.00
13027;BME280;6580;42.680;23.324;2023-10-13T00:41:51;95772.91;;;12.73;100.00
13027;BME280;6580;42.680;23.324;2023-10-13T00:44:42;95777.41;;;12.72;100.00
13027;BME280;6580;42.680;23.324;2023-10-13T00:47:30;95775.41;;;12.49;100.00
13027;BME280;6580;42.680;23.324;2023-10-13T00:50:34;95779.00;;;12.65;100.00
13027;BME280;6580;42.680;23.324;2023-10-13T00:53:21;95774.44;;;12.58;100.00
13027;BME280;6580;42.680;23.324;2023-10-13T00:56:06;95770.69;;;12.43;100.00
13027;BME280;6580;42.680;23.324;2023-10-13T00:58:53;95765.41;;;12.51;100.00
13027;BME280;6580;42.680;23.324;2023-10-13T01:01:41;95772.47;;;12.60;100.00
13027;BME280;6580;42.680;23.324;2023-10-13T01:04:32;95779.00;;;12.65;100.00
13027;BME280;6580;42.680;23.324;2023-10-13T01:07:17;95772.75;;;12.31;100.00
13027;BME280;6580;42.680;23.324;2023-10-13T01:10:10;95774.91;;;12.28;100.00
13027;BME280;6580;42.680;23.324;2023-10-13T01:12:58;95778.00;;;12.41;100.00
13027;BME280;6580;42.680;23.324;2023-10-13T01:15:46;95770.16;;;12.39;100.00
13027;BME280;6580;42.680;23.324;2023-10-13T01:18:32;95778.75;;;12.51;100.00
13027;BME280;6580;42.680;23.324;2023-10-13T01:21:25;95779.69;;;12.42;100.00
13027;BME280;6580;42.680;23.324;2023-10-13T01:24:14;95782.22;;;12.43;100.00
13027;BME280;6580;42.680;23.324;2023-10-13T01:26:59;95776.66;;;12.37;100.00
13027;BME280;6580;42.680;23.324;2023-10-13T01:29:54;95782.31;;;12.34;100.00
13027;BME280;6580;42.680;23.324;2023-10-13T01:32:43;95772.91;;;12.30;100.00
13027;BME280;6580;42.680;23.324;2023-10-13T01:35:29;95779.56;;;12.26;100.00
13027;BME280;6580;42.680;23.324;2023-10-13T01:38:26;95784.38;;;12.22;100.00
13027;BME280;6580;42.680;23.324;2023-10-13T01:41:13;95762.84;;;12.24;100.00
13027;BME280;6580;42.680;23.324;2023-10-13T01:43:59;95787.97;;;12.13;100.00
13027;BME280;6580;42.680;23.324;2023-10-13T01:46:46;95786.63;;;12.10;100.00
13027;BME280;6580;42.680;23.324;2023-10-13T01:49:32;95774.81;;;12.20;100.00
13027;BME280;6580;42.680;23.324;2023-10-13T01:52:26;95786.97;;;12.32;100.00
13027;BME280;6580;42.680;23.324;2023-10-13T01:55:11;95794.00;;;12.15;100.00
13027;BME280;6580;42.680;23.324;2023-10-13T01:58:06;95785.38;;;12.04;100.00
13027;BME280;6580;42.680;23.324;2023-10-13T02:00:58;95779.81;;;12.15;100.00
13027;BME280;6580;42.680;23.324;2023-10-13T02:03:43;95779.19;;;12.21;100.00
13027;BME280;6580;42.680;23.324;2023-10-13T02:06:33;95777.56;;;12.11;100.00
13027;BME280;6580;42.680;23.324;2023-10-13T02:09:20;95770.13;;;11.97;100.00
13027;BME280;6580;42.680;23.324;2023-10-13T02:12:13;95773.66;;;11.97;100.00
13027;BME280;6580;42.680;23.324;2023-10-13T02:15:00;95773.88;;;12.04;100.00
13027;BME280;6580;42.680;23.324;2023-10-13T02:17:48;95768.66;;;12.02;100.00
13027;BME280;6580;42.680;23.324;2023-10-13T02:20:36;95768.81;;;12.01;100.00
13027;BME280;6580;42.680;23.324;2023-10-13T02:23:27;95770.00;;;11.98;100.00
13027;BME280;6580;42.680;23.324;2023-10-13T02:26:13;95771.97;;;11.96;100.00
13027;BME280;6580;42.680;23.324;2023-10-13T02:29:15;95772.78;;;12.14;100.00
13027;BME280;6580;42.680;23.324;2023-10-13T02:32:04;95769.13;;;11.98;100.00
13027;BME280;6580;42.680;23.324;2023-10-13T02:34:56;95771.03;;;12.05;100.00
13027;BME280;6580;42.680;23.324;2023-10-13T02:37:50;95776.22;;;11.89;100.00
13027;BME280;6580;42.680;23.324;2023-10-13T02:40:40;95767.44;;;12.14;100.00
13027;BME280;6580;42.680;23.324;2023-10-13T02:43:26;95775.53;;;12.05;100.00
13027;BME280;6580;42.680;23.324;2023-10-13T02:46:17;95781.78;;;11.96;100.00
13027;BME280;6580;42.680;23.324;2023-10-13T02:49:09;95772.41;;;11.74;100.00
13027;BME280;6580;42.680;23.324;2023-10-13T02:51:55;95786.22;;;12.05;100.00
13027;BME280;6580;42.680;23.324;2023-10-13T02:54:42;95793.09;;;11.90;100.00
13027;BME280;6580;42.680;23.324;2023-10-13T02:57:32;95792.94;;;11.91;100.00
13027;BME280;6580;42.680;23.324;2023-10-13T03:00:23;95792.78;;;12.10;100.00
13027;BME280;6580;42.680;23.324;2023-10-13T03:03:15;95788.59;;;12.08;100.00
13027;BME280;6580;42.680;23.324;2023-10-13T03:06:05;95798.88;;;12.03;100.00
13027;BME280;6580;42.680;23.324;2023-10-13T03:08:52;95798.19;;;12.01;100.00
13027;BME280;6580;42.680;23.324;2023-10-13T03:11:37;95801.47;;;11.95;100.00
13027;BME280;6580;42.680;23.324;2023-10-13T03:14:24;95800.25;;;11.89;100.00
13027;BME280;6580;42.680;23.324;2023-10-13T03:17:15;95802.84;;;11.81;100.00
13027;BME280;6580;42.680;23.324;2023-10-13T03:20:17;95807.91;;;11.57;100.00
13027;BME280;6580;42.680;23.324;2023-10-13T03:23:09;95797.09;;;11.59;100.00
13027;BME280;6580;42.680;23.324;2023-10-13T03:25:54;95791.50;;;11.79;100.00
13027;BME280;6580;42.680;23.324;2023-10-13T03:28:40;95786.97;;;11.80;100.00
13027;BME280;6580;42.680;23.324;2023-10-13T03:31:26;95799.13;;;11.92;100.00
13027;BME280;6580;42.680;23.324;2023-10-13T03:34:13;95790.84;;;11.85;100.00
13027;BME280;6580;42.680;23.324;2023-10-13T03:37:00;95785.06;;;11.72;100.00
13027;BME280;6580;42.680;23.324;2023-10-13T03:39:59;95799.91;;;11.75;100.00
13027;BME280;6580;42.680;23.324;2023-10-13T03:42:51;95787.41;;;11.58;100.00
13027;BME280;6580;42.680;23.324;2023-10-13T03:45:49;95785.00;;;11.64;100.00
13027;BME280;6580;42.680;23.324;2023-10-13T03:48:45;95790.22;;;11.56;100.00
13027;BME280;6580;42.680;23.324;2023-10-13T03:51:40;95777.09;;;11.45;100.00
13027;BME280;6580;42.680;23.324;2023-10-13T03:54:27;95765.53;;;11.54;100.00
13027;BME280;6580;42.680;23.324;2023-10-13T03:57:21;95758.25;;;11.47;100.00
13027;BME280;6580;42.680;23.324;2023-10-13T04:00:11;95762.66;;;11.38;100.00
13027;BME280;6580;42.680;23.324;2023-10-13T04:03:08;95768.22;;;11.27;100.00
13027;BME280;6580;42.680;23.324;2023-10-13T04:06:00;95761.38;;;11.42;100.00
13027;BME280;6580;42.680;23.324;2023-10-13T04:08:50;95768.81;;;11.39;100.00
13027;BME280;6580;42.680;23.324;2023-10-13T04:11:50;95766.59;;;11.34;100.00
13027;BME280;6580;42.680;23.324;2023-10-13T04:15:08;95753.66;;;11.39;100.00
13027;BME280;6580;42.680;23.324;2023-10-13T04:18:03;95761.19;;;11.53;100.00
13027;BME280;6580;42.680;23.324;2023-10-13T04:20:58;95761.97;;;11.36;100.00
13027;BME280;6580;42.680;23.324;2023-10-13T04:23:54;95773.16;;;11.40;100.00
13027;BME280;6580;42.680;23.324;2023-10-13T04:27:09;95759.50;;;11.25;100.00
13027;BME280;6580;42.680;23.324;2023-10-13T04:30:16;95768.09;;;11.46;100.00
13027;BME280;6580;42.680;23.324;2023-10-13T04:33:11;95785.50;;;11.41;100.00
13027;BME280;6580;42.680;23.324;2023-10-13T04:36:19;95780.53;;;11.28;100.00
13027;BME280;6580;42.680;23.324;2023-10-13T04:39:29;95787.75;;;11.45;100.00
13027;BME280;6580;42.680;23.324;2023-10-13T04:42:24;95792.97;;;11.37;100.00
13027;BME280;6580;42.680;23.324;2023-10-13T04:45:25;95796.03;;;11.42;100.00
13027;BME280;6580;42.680;23.324;2023-10-13T04:48:32;95798.72;;;11.42;100.00
13027;BME280;6580;42.680;23.324;2023-10-13T04:51:24;95807.06;;;11.30;100.00
13027;BME280;6580;42.680;23.324;2023-10-13T04:54:35;95804.63;;;11.36;100.00
13027;BME280;6580;42.680;23.324;2023-10-13T04:57:29;95802.06;;;11.54;100.00
13027;BME280;6580;42.680;23.324;2023-10-13T05:00:19;95804.56;;;11.55;100.00
13027;BME280;6580;42.680;23.324;2023-10-13T05:03:24;95820.41;;;11.57;100.00
13027;BME280;6580;42.680;23.324;2023-10-13T05:06:36;95812.81;;;11.52;100.00
13027;BME280;6580;42.680;23.324;2023-10-13T05:09:39;95826.13;;;11.62;100.00
13027;BME280;6580;42.680;23.324;2023-10-13T05:12:43;95828.31;;;11.93;100.00
13027;BME280;6580;42.680;23.324;2023-10-13T05:15:47;95830.06;;;11.85;100.00
13027;BME280;6580;42.680;23.324;2023-10-13T05:18:53;95844.50;;;11.92;100.00
13027;BME280;6580;42.680;23.324;2023-10-13T05:21:59;95839.06;;;12.01;100.00
13027;BME280;6580;42.680;23.324;2023-10-13T05:25:03;95834.06;;;11.98;100.00
13027;BME280;6580;42.680;23.324;2023-10-13T05:28:06;95838.91;;;12.20;100.00
13027;BME280;6580;42.680;23.324;2023-10-13T05:31:11;95844.44;;;12.36;100.00
13027;BME280;6580;42.680;23.324;2023-10-13T05:34:16;95846.47;;;12.42;100.00
13027;BME280;6580;42.680;23.324;2023-10-13T05:37:18;95850.81;;;12.60;100.00
13027;BME280;6580;42.680;23.324;2023-10-13T05:40:21;95845.41;;;12.78;100.00
13027;BME280;6580;42.680;23.324;2023-10-13T05:43:25;95858.66;;;12.79;100.00
13027;BME280;6580;42.680;23.324;2023-10-13T05:46:28;95860.53;;;12.87;100.00
13027;BME280;6580;42.680;23.324;2023-10-13T05:49:35;95868.13;;;12.91;100.00
13027;BME280;6580;42.680;23.324;2023-10-13T05:52:34;95856.25;;;12.94;100.00
13027;BME280;6580;42.680;23.324;2023-10-13T05:55:37;95851.63;;;13.29;100.00
13027;BME280;6580;42.680;23.324;2023-10-13T05:58:48;95857.41;;;13.17;100.00
13027;BME280;6580;42.680;23.324;2023-10-13T06:01:53;95856.19;;;13.36;100.00
13027;BME280;6580;42.680;23.324;2023-10-13T06:04:57;95862.00;;;13.65;100.00
13027;BME280;6580;42.680;23.324;2023-10-13T06:08:01;95862.66;;;13.59;100.00
13027;BME280;6580;42.680;23.324;2023-10-13T06:11:04;95872.69;;;13.57;100.00
13027;BME280;6580;42.680;23.324;2023-10-13T06:14:07;95851.34;;;13.73;100.00
13027;BME280;6580;42.680;23.324;2023-10-13T06:17:10;95857.56;;;13.82;100.00
13027;BME280;6580;42.680;23.324;2023-10-13T06:20:15;95865.28;;;13.93;100.00
13027;BME280;6580;42.680;23.324;2023-10-13T06:23:19;95872.03;;;14.05;100.00
13027;BME280;6580;42.680;23.324;2023-10-13T06:26:22;95874.44;;;14.16;100.00
13027;BME280;6580;42.680;23.324;2023-10-13T06:29:25;95885.69;;;14.19;100.00
13027;BME280;6580;42.680;23.324;2023-10-13T06:32:12;95878.16;;;14.30;100.00
13027;BME280;6580;42.680;23.324;2023-10-13T06:35:00;95876.28;;;14.23;99.68
13027;BME280;6580;42.680;23.324;2023-10-13T06:37:52;95873.47;;;14.24;99.93
13027;BME280;6580;42.680;23.324;2023-10-13T06:40:37;95882.56;;;14.55;98.57
13027;BME280;6580;42.680;23.324;2023-10-13T06:43:26;95881.38;;;14.66;97.65
13027;BME280;6580;42.680;23.324;2023-10-13T06:46:16;95884.91;;;14.74;95.79
13027;BME280;6580;42.680;23.324;2023-10-13T06:49:07;95881.03;;;14.77;95.16
13027;BME280;6580;42.680;23.324;2023-10-13T06:51:55;95879.53;;;14.90;94.25
13027;BME280;6580;42.680;23.324;2023-10-13T06:54:46;95883.72;;;15.32;91.73
13027;BME280;6580;42.680;23.324;2023-10-13T06:57:32;95849.31;;;15.44;90.27
13027;BME280;6580;42.680;23.324;2023-10-13T07:00:21;95866.97;;;15.77;89.09
13027;BME280;6580;42.680;23.324;2023-10-13T07:03:13;95853.44;;;15.62;89.30
13027;BME280;6580;42.680;23.324;2023-10-13T07:06:05;95838.28;;;15.77;87.18
13027;BME280;6580;42.680;23.324;2023-10-13T07:08:55;95847.97;;;15.86;85.92
13027;BME280;6580;42.680;23.324;2023-10-13T07:11:43;95842.94;;;15.83;86.67
13027;BME280;6580;42.680;23.324;2023-10-13T07:14:28;95850.66;;;15.86;87.08
13027;BME280;6580;42.680;23.324;2023-10-13T07:17:20;95847.94;;;15.94;86.61
13027;BME280;6580;42.680;23.324;2023-10-13T07:20:11;95867.34;;;16.04;85.87
13027;BME280;6580;42.680;23.324;2023-10-13T07:23:08;95869.81;;;16.14;86.51
13027;BME280;6580;42.680;23.324;2023-10-13T07:25:56;95852.41;;;16.40;83.79
13027;BME280;6580;42.680;23.324;2023-10-13T07:28:48;95863.19;;;16.62;82.21
13027;BME280;6580;42.680;23.324;2023-10-13T07:31:54;95853.91;;;16.42;82.11
13027;BME280;6580;42.680;23.324;2023-10-13T07:34:40;95851.38;;;16.41;82.34
13027;BME280;6580;42.680;23.324;2023-10-13T07:37:25;95848.06;;;16.84;79.63
13027;BME280;6580;42.680;23.324;2023-10-13T07:40:13;95847.63;;;18.04;76.44
13027;BME280;6580;42.680;23.324;2023-10-13T07:43:23;95830.13;;;19.60;68.42
13027;BME280;6580;42.680;23.324;2023-10-13T07:46:12;95833.22;;;20.32;63.20
13027;BME280;6580;42.680;23.324;2023-10-13T07:48:58;95833.00;;;20.86;59.13
13027;BME280;6580;42.680;23.324;2023-10-13T07:51:55;95839.09;;;21.21;56.27
13027;BME280;6580;42.680;23.324;2023-10-13T07:54:43;95821.16;;;21.71;54.91
13027;BME280;6580;42.680;23.324;2023-10-13T07:57:31;95825.91;;;21.89;52.68
13027;BME280;6580;42.680;23.324;2023-10-13T08:00:19;95824.91;;;21.25;54.10
13027;BME280;6580;42.680;23.324;2023-10-13T08:03:23;95821.38;;;21.70;53.16
13027;BME280;6580;42.680;23.324;2023-10-13T08:06:19;95804.47;;;22.81;50.45
13027;BME280;6580;42.680;23.324;2023-10-13T08:09:06;95799.94;;;23.00;48.49
13027;BME280;6580;42.680;23.324;2023-10-13T08:11:53;95807.31;;;23.24;47.82
13027;BME280;6580;42.680;23.324;2023-10-13T08:14:39;95805.25;;;24.46;44.92
13027;BME280;6580;42.680;23.324;2023-10-13T08:17:27;95803.97;;;25.60;42.89
13027;BME280;6580;42.680;23.324;2023-10-13T08:20:17;95805.34;;;25.39;41.74
13027;BME280;6580;42.680;23.324;2023-10-13T08:23:04;95794.56;;;25.03;41.61
13027;BME280;6580;42.680;23.324;2023-10-13T08:25:58;95807.69;;;25.13;42.10
13027;BME280;6580;42.680;23.324;2023-10-13T08:29:13;95811.56;;;24.22;43.45
13027;BME280;6580;42.680;23.324;2023-10-13T08:32:25;95819.97;;;23.61;44.86
13027;BME280;6580;42.680;23.324;2023-10-13T08:35:29;95816.56;;;24.07;43.69
13027;BME280;6580;42.680;23.324;2023-10-13T08:38:23;95799.97;;;24.80;41.87
13027;BME280;6580;42.680;23.324;2023-10-13T08:41:13;95788.63;;;26.39;39.29
13027;BME280;6580;42.680;23.324;2023-10-13T08:44:14;95793.22;;;26.61;37.88
13027;BME280;6580;42.680;23.324;2023-10-13T08:47:16;95793.50;;;26.48;37.96
13027;BME280;6580;42.680;23.324;2023-10-13T08:50:06;95772.56;;;25.05;40.21
13027;BME280;6580;42.680;23.324;2023-10-13T08:53:17;95798.00;;;24.99;41.56
13027;BME280;6580;42.680;23.324;2023-10-13T08:56:16;95797.94;;;25.69;40.09
13027;BME280;6580;42.680;23.324;2023-10-13T08:59:03;95790.16;;;26.58;38.35
13027;BME280;6580;42.680;23.324;2023-10-13T09:01:50;95788.00;;;26.60;37.57
13027;BME280;6580;42.680;23.324;2023-10-13T09:04:44;95783.66;;;26.47;37.67
13027;BME280;6580;42.680;23.324;2023-10-13T09:07:30;95782.84;;;27.47;36.29
13027;BME280;6580;42.680;23.324;2023-10-13T09:10:25;95753.66;;;26.64;36.53
13027;BME280;6580;42.680;23.324;2023-10-13T09:13:20;95783.63;;;27.75;35.64
13027;BME280;6580;42.680;23.324;2023-10-13T09:16:10;95785.69;;;28.22;34.59
13027;BME280;6580;42.680;23.324;2023-10-13T09:19:22;95790.84;;;28.57;34.44
13027;BME280;6580;42.680;23.324;2023-10-13T09:22:07;95774.00;;;29.70;33.29
13027;BME280;6580;42.680;23.324;2023-10-13T09:24:54;95774.97;;;29.59;33.03
13027;BME280;6580;42.680;23.324;2023-10-13T09:27:48;95763.66;;;29.24;32.56
13027;BME280;6580;42.680;23.324;2023-10-13T09:30:43;95762.56;;;29.25;33.04
13027;BME280;6580;42.680;23.324;2023-10-13T09:33:28;95753.38;;;28.84;33.64
13027;BME280;6580;42.680;23.324;2023-10-13T09:36:17;95751.31;;;30.31;32.00
13027;BME280;6580;42.680;23.324;2023-10-13T09:39:02;95742.78;;;29.86;32.47
13027;BME280;6580;42.680;23.324;2023-10-13T09:41:58;95744.91;;;29.74;32.47
13027;BME280;6580;42.680;23.324;2023-10-13T09:44:46;95736.38;;;30.63;32.13
13027;BME280;6580;42.680;23.324;2023-10-13T09:47:36;95718.13;;;30.37;31.47
13027;BME280;6580;42.680;23.324;2023-10-13T09:50:23;95729.19;;;30.01;31.58
13027;BME280;6580;42.680;23.324;2023-10-13T09:53:10;95734.56;;;28.49;33.71
13027;BME280;6580;42.680;23.324;2023-10-13T09:56:02;95738.66;;;28.47;34.17
13027;BME280;6580;42.680;23.324;2023-10-13T09:59:01;95734.47;;;29.13;32.70
13027;BME280;6580;42.680;23.324;2023-10-13T10:01:54;95701.16;;;29.68;31.94
13027;BME280;6580;42.680;23.324;2023-10-13T10:04:51;95722.75;;;29.23;32.31
13027;BME280;6580;42.680;23.324;2023-10-13T10:07:36;95715.03;;;31.00;30.39
13027;BME280;6580;42.680;23.324;2023-10-13T10:10:29;95709.03;;;31.98;29.34
13027;BME280;6580;42.680;23.324;2023-10-13T10:13:27;95698.50;;;32.34;28.42
13027;BME280;6580;42.680;23.324;2023-10-13T10:16:28;95701.81;;;32.36;28.20
13027;BME280;6580;42.680;23.324;2023-10-13T10:19:21;95698.94;;;32.61;28.07
13027;BME280;6580;42.680;23.324;2023-10-13T10:22:08;95690.13;;;33.84;25.55
13027;BME280;6580;42.680;23.324;2023-10-13T10:25:01;95689.56;;;33.11;24.96
13027;BME280;6580;42.680;23.324;2023-10-13T10:27:54;95688.13;;;31.72;27.05
13027;BME280;6580;42.680;23.324;2023-10-13T10:30:41;95682.63;;;31.37;26.84
13027;BME280;6580;42.680;23.324;2023-10-13T10:33:30;95680.16;;;31.65;26.72
13027;BME280;6580;42.680;23.324;2023-10-13T10:36:29;95676.31;;;32.59;25.35
13027;BME280;6580;42.680;23.324;2023-10-13T10:39:15;95678.09;;;33.32;24.43
13027;BME280;6580;42.680;23.324;2023-10-13T10:42:09;95675.69;;;33.59;24.81
13027;BME280;6580;42.680;23.324;2023-10-13T10:45:02;95665.69;;;33.34;24.47
13027;BME280;6580;42.680;23.324;2023-10-13T10:48:07;95678.41;;;32.24;26.45
13027;BME280;6580;42.680;23.324;2023-10-13T10:51:04;95677.94;;;31.13;27.84
13027;BME280;6580;42.680;23.324;2023-10-13T10:54:00;95670.78;;;31.56;26.85
13027;BME280;6580;42.680;23.324;2023-10-13T10:56:56;95670.06;;;32.44;25.44
13027;BME280;6580;42.680;23.324;2023-10-13T10:59:49;95661.63;;;32.16;25.38
13027;BME280;6580;42.680;23.324;2023-10-13T11:02:54;95670.41;;;30.68;27.25
13027;BME280;6580;42.680;23.324;2023-10-13T11:05:45;95669.72;;;30.41;27.38
13027;BME280;6580;42.680;23.324;2023-10-13T11:08:31;95661.16;;;31.59;26.37
13027;BME280;6580;42.680;23.324;2023-10-13T11:11:29;95647.34;;;31.79;25.00
13027;BME280;6580;42.680;23.324;2023-10-13T11:14:21;95656.28;;;32.39;25.35
13027;BME280;6580;42.680;23.324;2023-10-13T11:17:10;95644.81;;;33.19;23.93
13027;BME280;6580;42.680;23.324;2023-10-13T11:20:08;95647.41;;;34.70;22.45
13027;BME280;6580;42.680;23.324;2023-10-13T11:23:00;95634.47;;;33.67;23.07
13027;BME280;6580;42.680;23.324;2023-10-13T11:25:56;95634.63;;;33.09;24.32
13027;BME280;6580;42.680;23.324;2023-10-13T11:28:51;95635.53;;;33.71;22.95
13027;BME280;6580;42.680;23.324;2023-10-13T11:31:39;95621.97;;;35.05;21.77
13027;BME280;6580;42.680;23.324;2023-10-13T11:34:26;95629.91;;;34.93;21.31
13027;BME280;6580;42.680;23.324;2023-10-13T11:37:25;95626.81;;;34.35;22.03
13027;BME280;6580;42.680;23.324;2023-10-13T11:40:22;95606.50;;;33.12;23.06
13027;BME280;6580;42.680;23.324;2023-10-13T11:43:28;95619.31;;;31.27;24.96
13027;BME280;6580;42.680;23.324;2023-10-13T11:46:18;95613.63;;;33.13;23.25
13027;BME280;6580;42.680;23.324;2023-10-13T11:49:24;95609.75;;;33.47;22.79
13027;BME280;6580;42.680;23.324;2023-10-13T11:52:22;95617.22;;;32.75;23.21
13027;BME280;6580;42.680;23.324;2023-10-13T11:55:10;95617.56;;;33.69;22.53
13027;BME280;6580;42.680;23.324;2023-10-13T11:57:58;95602.81;;;34.48;21.78
13027;BME280;6580;42.680;23.324;2023-10-13T12:00:43;95596.41;;;35.90;20.79
13027;BME280;6580;42.680;23.324;2023-10-13T12:03:54;95590.72;;;35.37;20.44
13027;BME280;6580;42.680;23.324;2023-10-13T12:06:57;95591.28;;;35.20;20.54
13027;BME280;6580;42.680;23.324;2023-10-13T12:09:58;95588.69;;;35.87;20.69
13027;BME280;6580;42.680;23.324;2023-10-13T12:12:50;95582.28;;;35.28;20.27
13027;BME280;6580;42.680;23.324;2023-10-13T12:15:39;95582.31;;;33.84;21.33
13027;BME280;6580;42.680;23.324;2023-10-13T12:18:36;95580.44;;;34.27;21.11
13027;BME280;6580;42.680;23.324;2023-10-13T12:21:27;95582.44;;;33.98;21.10
13027;BME280;6580;42.680;23.324;2023-10-13T12:24:13;95574.31;;;34.30;20.97
13027;BME280;6580;42.680;23.324;2023-10-13T12:27:07;95571.47;;;33.88;22.06
13027;BME280;6580;42.680;23.324;2023-10-13T12:30:06;95581.50;;;34.49;21.14
13027;BME280;6580;42.680;23.324;2023-10-13T12:32:51;95570.97;;;35.25;20.29
13027;BME280;6580;42.680;23.324;2023-10-13T12:35:55;95570.44;;;34.31;20.99
13027;BME280;6580;42.680;23.324;2023-10-13T12:38:53;95568.19;;;34.09;21.17
13027;BME280;6580;42.680;23.324;2023-10-13T12:41:56;95565.50;;;33.81;21.02
13027;BME280;6580;42.680;23.324;2023-10-13T12:44:59;95565.72;;;33.56;21.95
13027;BME280;6580;42.680;23.324;2023-10-13T12:48:00;95575.38;;;34.10;21.08
13027;BME280;6580;42.680;23.324;2023-10-13T12:51:04;95568.53;;;33.79;20.59
13027;BME280;6580;42.680;23.324;2023-10-13T12:54:06;95561.03;;;32.95;21.45
13027;BME280;6580;42.680;23.324;2023-10-13T12:56:58;95563.13;;;32.74;22.02
13027;BME280;6580;42.680;23.324;2023-10-13T12:59:43;95574.09;;;31.53;23.23
13027;BME280;6580;42.680;23.324;2023-10-13T13:02:32;95567.47;;;29.73;24.84
13027;BME280;6580;42.680;23.324;2023-10-13T13:05:18;95557.75;;;30.07;24.55
13027;BME280;6580;42.680;23.324;2023-10-13T13:08:08;95564.28;;;29.96;24.56
13027;BME280;6580;42.680;23.324;2023-10-13T13:10:58;95560.47;;;29.46;25.24
13027;BME280;6580;42.680;23.324;2023-10-13T13:13:46;95567.19;;;29.28;25.60
13027;BME280;6580;42.680;23.324;2023-10-13T13:16:40;95561.25;;;29.05;25.87
13027;BME280;6580;42.680;23.324;2023-10-13T13:19:26;95560.84;;;28.60;26.40
13027;BME280;6580;42.680;23.324;2023-10-13T13:22:12;95561.06;;;28.54;26.65
13027;BME280;6580;42.680;23.324;2023-10-13T13:24:58;95557.25;;;28.28;26.59
13027;BME280;6580;42.680;23.324;2023-10-13T13:27:47;95568.63;;;28.15;27.34
13027;BME280;6580;42.680;23.324;2023-10-13T13:30:33;95559.25;;;28.11;27.79
13027;BME280;6580;42.680;23.324;2023-10-13T13:33:19;95565.25;;;28.08;26.85
13027;BME280;6580;42.680;23.324;2023-10-13T13:36:08;95560.59;;;27.88;27.14
13027;BME280;6580;42.680;23.324;2023-10-13T13:38:58;95560.22;;;27.58;27.36
13027;BME280;6580;42.680;23.324;2023-10-13T13:41:46;95564.81;;;27.52;28.47
13027;BME280;6580;42.680;23.324;2023-10-13T13:44:50;95567.78;;;27.51;28.20
13027;BME280;6580;42.680;23.324;2023-10-13T13:47:36;95572.66;;;27.49;28.18
13027;BME280;6580;42.680;23.324;2023-10-13T13:50:22;95568.44;;;27.20;28.67
13027;BME280;6580;42.680;23.324;2023-10-13T13:53:10;95563.34;;;27.07;29.27
13027;BME280;6580;42.680;23.324;2023-10-13T13:55:59;95578.38;;;27.26;29.24
13027;BME280;6580;42.680;23.324;2023-10-13T13:58:50;95566.59;;;27.25;28.99
13027;BME280;6580;42.680;23.324;2023-10-13T14:01:37;95570.41;;;27.24;28.85
13027;BME280;6580;42.680;23.324;2023-10-13T14:04:24;95572.19;;;26.81;29.97
13027;BME280;6580;42.680;23.324;2023-10-13T14:07:14;95567.47;;;26.77;30.17
13027;BME280;6580;42.680;23.324;2023-10-13T14:10:04;95549.59;;;26.69;30.88
13027;BME280;6580;42.680;23.324;2023-10-13T14:13:00;95567.03;;;26.84;30.67
13027;BME280;6580;42.680;23.324;2023-10-13T14:15:59;95562.94;;;26.66;30.54
13027;BME280;6580;42.680;23.324;2023-10-13T14:18:48;95563.16;;;26.64;30.97
13027;BME280;6580;42.680;23.324;2023-10-13T14:21:34;95569.69;;;26.63;31.47
13027;BME280;6580;42.680;23.324;2023-10-13T14:24:20;95569.81;;;26.40;31.61
13027;BME280;6580;42.680;23.324;2023-10-13T14:27:11;95564.88;;;26.37;31.90
13027;BME280;6580;42.680;23.324;2023-10-13T14:30:01;95571.88;;;26.33;31.97
13027;BME280;6580;42.680;23.324;2023-10-13T14:32:49;95572.47;;;26.35;32.33
13027;BME280;6580;42.680;23.324;2023-10-13T14:35:43;95556.97;;;26.24;32.06
13027;BME280;6580;42.680;23.324;2023-10-13T14:38:31;95571.19;;;26.26;32.65
13027;BME280;6580;42.680;23.324;2023-10-13T14:41:16;95555.56;;;26.22;32.74
13027;BME280;6580;42.680;23.324;2023-10-13T14:44:03;95568.38;;;26.21;32.51
13027;BME280;6580;42.680;23.324;2023-10-13T14:46:51;95552.31;;;26.08;32.99
13027;BME280;6580;42.680;23.324;2023-10-13T14:49:38;95565.13;;;26.08;32.82
13027;BME280;6580;42.680;23.324;2023-10-13T14:52:32;95560.91;;;26.00;33.44
13027;BME280;6580;42.680;23.324;2023-10-13T14:55:18;95552.06;;;25.82;33.23
13027;BME280;6580;42.680;23.324;2023-10-13T14:58:05;95565.22;;;25.85;33.85
13027;BME280;6580;42.680;23.324;2023-10-13T15:00:52;95563.25;;;25.80;33.82
13027;BME280;6580;42.680;23.324;2023-10-13T15:03:39;95564.06;;;25.70;34.48
13027;BME280;6580;42.680;23.324;2023-10-13T15:06:26;95556.56;;;25.76;34.65
13027;BME280;6580;42.680;23.324;2023-10-13T15:09:16;95565.13;;;25.18;37.47
13027;BME280;6580;42.680;23.324;2023-10-13T15:12:07;95566.78;;;24.96;38.85